Arbela, Missouri
Current Conditions -  °F | °C
As of 2:15 PM on Friday 31 Oct 2014 (Local Time) from KEOK Reporting Station
Clear Clear  
Wind Chill:   Ceiling: Unl
Heat Index:   Visibility: 10mi
Dew Point: -5°   Wind: 12mph
Humidity: 46%   Direction: 340°NNW
Pressure: 30.36"   Gusts: 21mph
Location:  40.46°N, 92.02°W
Report Text: KEOK 311915Z AUTO 34010G18KT 10SM CLR 06/M05 A3036 RMK AO2
Loading
Personal Weather Stations






























Interactive Weather Map
Tropical Storm Tracking
New forecast layout! Learn more

10-Day Weather Forecast

Advertisements
Track Severe Weather on mobile